Time;durP1;ratioP1;P1;durP2;ratioP2;P2;SDS_P1;SDS_P2;PMS_P1;PMS_P2;Temp;Humidity;BMP_temperature;BMP_pressure;BME280_temperature;BME280_humidity;BME280_pressure;Samples;Min_cycle;Max_cycle;Signal;HPM_P1;HPM_P2
2022/05/17 00:01:51;;;;;;;2.88;2.15;;;;;;;;;;7332212;19;153610;-18
2022/05/17 00:04:23;;;;;;;2.35;1.70;;;;;;;;;;7331980;19;161857;-18
2022/05/17 00:06:55;;;;;;;3.95;1.75;;;;;;;;;;7332194;19;162364;-19
2022/05/17 00:09:27;;;;;;;;;;;;;;;;;;7333146;19;154086;-20
2022/05/17 00:11:59;;;;;;;5.00;1.63;;;;;;;;;;7331155;19;153646;-18
2022/05/17 00:14:31;;;;;;;2.67;1.70;;;;;;;;;;7328598;19;162023;-18
2022/05/17 00:17:06;;;;;;;1.60;1.50;;;;;;;;;;7329482;19;162602;-19
2022/05/17 00:19:37;;;;;;;1.88;1.60;;;;;;;;;;7331902;19;154174;-18
2022/05/17 00:22:08;;;;;;;2.15;1.77;;;;;;;;;;7330669;19;153583;-18
2022/05/17 00:24:40;;;;;;;2.70;1.98;;;;;;;;;;7331412;19;161770;-18
2022/05/17 00:27:11;;;;;;;2.28;2.05;;;;;;;;;;7331274;19;162398;-19
2022/05/17 00:29:43;;;;;;;3.38;1.80;;;;;;;;;;7330349;19;154274;-18
2022/05/17 00:32:16;;;;;;;2.35;1.80;;;;;;;;;;7330606;19;154223;-18
2022/05/17 00:34:48;;;;;;;2.25;2.05;;;;;;;;;;7331205;19;161960;-18
2022/05/17 00:37:20;;;;;;;2.38;1.48;;;;;;;;;;7328716;19;162351;-18
2022/05/17 00:39:51;;;;;;;2.07;1.87;;;;;;;;;;7330939;19;154050;-19
2022/05/17 00:42:23;;;;;;;3.28;2.17;;;;;;;;;;7331510;19;153097;-18
2022/05/17 00:44:54;;;;;;;3.08;1.83;;;;;;;;;;7331710;19;161796;-19
2022/05/17 00:47:32;;;;;;;3.00;1.80;;;;;;;;;;7329025;19;162544;-18
2022/05/17 00:50:07;;;;;;;2.47;1.80;;;;;;;;;;7328879;19;154146;-18
2022/05/17 00:52:44;;;;;;;4.35;2.00;;;;;;;;;;7329647;19;153676;-18
2022/05/17 00:55:21;;;;;;;3.70;2.08;;;;;;;;;;7330631;19;161988;-18
2022/05/17 00:57:57;;;;;;;4.60;1.90;;;;;;;;;;7326048;19;162782;-18
2022/05/17 01:00:31;;;;;;;3.33;1.92;;;;;;;;;;7331018;19;154191;-19
2022/05/17 01:03:09;;;;;;;2.80;1.80;;;;;;;;;;7330787;19;153379;-18
2022/05/17 01:05:43;;;;;;;2.72;1.90;;;;;;;;;;7330025;19;161874;-19
2022/05/17 01:08:18;;;;;;;3.15;2.17;;;;;;;;;;7333174;19;162296;-18
2022/05/17 01:10:49;;;;;;;3.83;1.63;;;;;;;;;;7329085;19;154118;-19
2022/05/17 01:16:05;;;;;;;2.15;1.80;;;;;;;;;;7329567;19;161927;-18
2022/05/17 01:18:42;;;;;;;4.05;2.35;;;;;;;;;;7328808;19;162603;-18
2022/05/17 01:21:16;;;;;;;3.30;2.53;;;;;;;;;;7330343;19;154263;-18
2022/05/17 01:23:47;;;;;;;5.03;1.80;;;;;;;;;;7329963;19;153650;-18
2022/05/17 01:26:21;;;;;;;2.67;2.20;;;;;;;;;;7328597;19;161851;-19
2022/05/17 01:28:53;;;;;;;2.47;1.90;;;;;;;;;;7329728;19;162302;-19
2022/05/17 01:31:24;;;;;;;2.38;1.90;;;;;;;;;;7329653;19;154256;-19
2022/05/17 01:33:55;;;;;;;3.65;1.70;;;;;;;;;;7329953;19;153527;-18
2022/05/17 01:36:30;;;;;;;4.23;2.30;;;;;;;;;;7329256;19;161802;-19
2022/05/17 01:39:02;;;;;;;2.97;2.17;;;;;;;;;;7329522;19;162462;-19
2022/05/17 01:41:34;;;;;;;1.92;1.73;;;;;;;;;;7329788;19;154095;-19
2022/05/17 01:44:06;;;;;;;2.78;2.17;;;;;;;;;;7328311;19;153610;-19
2022/05/17 01:46:38;;;;;;;2.80;2.08;;;;;;;;;;7329352;19;162448;-20
2022/05/17 01:49:09;;;;;;;3.42;2.25;;;;;;;;;;7327195;19;162365;-18
2022/05/17 01:51:43;;;;;;;2.97;2.03;;;;;;;;;;7329366;19;154097;-19
2022/05/17 01:54:14;;;;;;;2.85;1.90;;;;;;;;;;7328857;19;153265;-16
2022/05/17 01:56:45;;;;;;;2.50;2.03;;;;;;;;;;7328257;19;162099;-16
2022/05/17 01:59:17;;;;;;;1.95;1.75;;;;;;;;;;7328608;19;162526;-24
2022/05/17 02:01:48;;;;;;;4.13;1.90;;;;;;;;;;7328857;19;154210;-16
2022/05/17 02:04:20;;;;;;;2.50;1.95;;;;;;;;;;7327474;19;153760;-26
2022/05/17 02:06:53;;;;;;;1.88;1.63;;;;;;;;;;7327328;19;162179;-17
2022/05/17 02:09:24;;;;;;;2.25;1.90;;;;;;;;;;7328492;19;162368;-17
2022/05/17 02:11:56;;;;;;;1.88;1.63;;;;;;;;;;7328446;19;154250;-17
2022/05/17 02:14:28;;;;;;;2.43;1.93;;;;;;;;;;7328527;19;153739;-17
2022/05/17 02:17:01;;;;;;;2.35;2.15;;;;;;;;;;7327800;19;161981;-17
2022/05/17 02:19:33;;;;;;;2.05;1.70;;;;;;;;;;7327990;19;162362;-16
2022/05/17 02:22:07;;;;;;;3.33;1.80;;;;;;;;;;7327013;19;154246;-17
2022/05/17 02:24:38;;;;;;;1.70;1.52;;;;;;;;;;7327840;19;153833;-17
2022/05/17 02:27:10;;;;;;;2.17;1.80;;;;;;;;;;7327717;19;162050;-20
2022/05/17 02:29:41;;;;;;;2.83;2.47;;;;;;;;;;7327549;19;162450;-17
2022/05/17 02:32:14;;;;;;;2.00;1.80;;;;;;;;;;7327849;19;154084;-17
2022/05/17 02:34:46;;;;;;;2.10;1.90;;;;;;;;;;7327831;19;153817;-17
2022/05/17 02:37:19;;;;;;;3.10;1.90;;;;;;;;;;7327058;19;161901;-16
2022/05/17 02:39:50;;;;;;;2.30;2.10;;;;;;;;;;7334399;19;162535;-16
2022/05/17 02:42:22;;;;;;;3.00;2.03;;;;;;;;;;7334313;19;154245;-17
2022/05/17 02:44:53;;;;;;;1.95;1.70;;;;;;;;;;7338163;19;153636;-16
2022/05/17 02:47:24;;;;;;;2.00;1.70;;;;;;;;;;7337259;19;162182;-16
2022/05/17 02:49:56;;;;;;;2.67;1.90;;;;;;;;;;7335299;19;163233;-17
2022/05/17 02:52:29;;;;;;;2.08;1.70;;;;;;;;;;7337895;19;154269;-21
2022/05/17 02:55:01;;;;;;;1.77;1.55;;;;;;;;;;7337597;19;153497;-16
2022/05/17 02:57:32;;;;;;;2.47;2.13;;;;;;;;;;7336646;19;161929;-16
2022/05/17 03:00:04;;;;;;;2.25;1.65;;;;;;;;;;7337370;19;162218;-19
2022/05/17 03:02:36;;;;;;;1.90;1.70;;;;;;;;;;7336808;19;156152;-17
2022/05/17 03:05:09;;;;;;;2.75;1.83;;;;;;;;;;7336139;19;153696;-17
2022/05/17 03:07:43;;;;;;;2.00;1.90;;;;;;;;;;7336876;19;161838;-18
2022/05/17 03:10:14;;;;;;;2.13;1.88;;;;;;;;;;7336548;19;162309;-17
2022/05/17 03:12:47;;;;;;;1.98;1.55;;;;;;;;;;7337312;19;154057;-16
2022/05/17 03:15:23;;;;;;;2.20;2.00;;;;;;;;;;7336889;19;153584;-19
2022/05/17 03:17:54;;;;;;;1.80;1.70;;;;;;;;;;7335983;19;162017;-19
2022/05/17 03:20:25;;;;;;;4.70;1.65;;;;;;;;;;7336864;19;162438;-19
2022/05/17 03:22:59;;;;;;;2.55;1.60;;;;;;;;;;7336923;19;154355;-19
2022/05/17 03:25:30;;;;;;;1.70;1.60;;;;;;;;;;7336723;19;153595;-20
2022/05/17 03:28:02;;;;;;;1.52;1.40;;;;;;;;;;7336352;19;162662;-19
2022/05/17 03:30:33;;;;;;;2.10;1.80;;;;;;;;;;7336619;19;162368;-20
2022/05/17 03:33:04;;;;;;;1.98;1.77;;;;;;;;;;7336454;19;154291;-21
2022/05/17 03:35:36;;;;;;;1.98;1.52;;;;;;;;;;7334884;19;153536;-17
2022/05/17 03:38:11;;;;;;;1.85;1.67;;;;;;;;;;7335359;19;161778;-17
2022/05/17 03:40:42;;;;;;;1.60;1.50;;;;;;;;;;7335827;19;162417;-19
2022/05/17 03:43:15;;;;;;;2.47;1.75;;;;;;;;;;7336287;19;154167;-19
2022/05/17 03:45:47;;;;;;;1.57;1.47;;;;;;;;;;7336504;19;153537;-18
2022/05/17 03:48:18;;;;;;;1.75;1.58;;;;;;;;;;7333242;19;162037;-18
2022/05/17 03:50:49;;;;;;;2.50;1.80;;;;;;;;;;7335423;19;162535;-18
2022/05/17 03:53:24;;;;;;;1.73;1.63;;;;;;;;;;7335297;19;154316;-18
2022/05/17 03:55:55;;;;;;;1.95;1.60;;;;;;;;;;7336691;19;153587;-19
2022/05/17 03:58:27;;;;;;;1.92;1.52;;;;;;;;;;7331461;19;162119;-19
2022/05/17 04:00:58;;;;;;;1.80;1.70;;;;;;;;;;7332274;19;162509;-19
2022/05/17 04:03:29;;;;;;;2.17;1.67;;;;;;;;;;7332493;19;154513;-19
2022/05/17 04:06:01;;;;;;;1.42;1.33;;;;;;;;;;7332729;19;153360;-19
2022/05/17 04:08:36;;;;;;;1.95;1.60;;;;;;;;;;7330749;19;162237;-19
2022/05/17 04:11:07;;;;;;;1.50;1.40;;;;;;;;;;7331907;19;162371;-19
2022/05/17 04:13:39;;;;;;;2.75;1.58;;;;;;;;;;7332334;19;153933;-19
2022/05/17 04:16:10;;;;;;;1.65;1.42;;;;;;;;;;7332201;19;153591;-19
2022/05/17 04:18:42;;;;;;;1.48;1.30;;;;;;;;;;7329746;19;162258;-19
2022/05/17 04:21:13;;;;;;;2.20;1.33;;;;;;;;;;7331666;19;162400;-18
2022/05/17 04:23:47;;;;;;;2.72;1.77;;;;;;;;;;7331885;19;154058;-17
2022/05/17 04:26:18;;;;;;;2.38;1.83;;;;;;;;;;7331662;19;153237;-17
2022/05/17 04:28:50;;;;;;;2.35;1.50;;;;;;;;;;7330977;19;162289;-18
2022/05/17 04:31:21;;;;;;;1.58;1.48;;;;;;;;;;7330058;19;162379;-18
2022/05/17 04:33:53;;;;;;;2.92;2.00;;;;;;;;;;7331866;19;154359;-18
2022/05/17 04:36:25;;;;;;;2.20;1.58;;;;;;;;;;7331656;19;153649;-17
2022/05/17 04:38:59;;;;;;;2.75;1.73;;;;;;;;;;7330285;19;161826;-18
2022/05/17 04:41:30;;;;;;;2.20;2.00;;;;;;;;;;7330984;19;162432;-18
2022/05/17 04:44:02;;;;;;;1.77;1.67;;;;;;;;;;7331345;19;154036;-18
2022/05/17 04:46:33;;;;;;;1.60;1.50;;;;;;;;;;7331401;19;153815;-18
2022/05/17 04:49:04;;;;;;;3.10;1.73;;;;;;;;;;7329080;19;161978;-18
2022/05/17 04:51:36;;;;;;;2.15;1.60;;;;;;;;;;7330761;19;163362;-23
2022/05/17 04:54:10;;;;;;;1.70;1.60;;;;;;;;;;7329918;19;154232;-19
2022/05/17 04:56:41;;;;;;;1.70;1.60;;;;;;;;;;7331034;19;153563;-19
2022/05/17 04:59:12;;;;;;;1.70;1.60;;;;;;;;;;7329713;19;162106;-18
2022/05/17 05:01:44;;;;;;;1.73;1.60;;;;;;;;;;7328267;19;162369;-19
2022/05/17 05:04:17;;;;;;;1.73;1.63;;;;;;;;;;7330806;19;154196;-19
2022/05/17 05:06:48;;;;;;;1.50;1.40;;;;;;;;;;7330315;19;153501;-18
2022/05/17 05:09:22;;;;;;;1.42;1.33;;;;;;;;;;7334196;19;161914;-18
2022/05/17 05:11:53;;;;;;;1.70;1.60;;;;;;;;;;7330167;19;162492;-18
2022/05/17 05:14:25;;;;;;;1.60;1.42;;;;;;;;;;7330402;19;154454;-18
2022/05/17 05:16:56;;;;;;;1.83;1.60;;;;;;;;;;7330540;19;153755;-18
2022/05/17 05:19:28;;;;;;;1.77;1.67;;;;;;;;;;7329131;19;161836;-18
2022/05/17 05:21:59;;;;;;;1.60;1.50;;;;;;;;;;7329854;19;162446;-19
2022/05/17 05:24:33;;;;;;;1.80;1.70;;;;;;;;;;7330072;19;153962;-19
2022/05/17 05:27:05;;;;;;;1.50;1.40;;;;;;;;;;7330009;19;153526;-18
2022/05/17 05:29:37;;;;;;;1.60;1.50;;;;;;;;;;7329597;19;161904;-18
2022/05/17 05:32:09;;;;;;;1.63;1.45;;;;;;;;;;7329616;19;162164;-18
2022/05/17 05:34:41;;;;;;;10.80;1.63;;;;;;;;;;7329805;19;154143;-18
2022/05/17 05:37:12;;;;;;;2.17;1.70;;;;;;;;;;7329232;19;153498;-17
2022/05/17 05:39:46;;;;;;;3.30;1.70;;;;;;;;;;7330660;19;161895;-18
2022/05/17 05:42:17;;;;;;;3.20;1.95;;;;;;;;;;7329098;19;162428;-18
2022/05/17 05:44:49;;;;;;;3.15;1.90;;;;;;;;;;7329336;19;154163;-18
2022/05/17 05:47:20;;;;;;;5.43;2.25;;;;;;;;;;7329207;19;153737;-18
2022/05/17 05:49:53;;;;;;;3.22;1.92;;;;;;;;;;7325874;19;162061;-18
2022/05/17 05:52:24;;;;;;;2.75;1.88;;;;;;;;;;7326996;19;162364;-18
2022/05/17 05:54:58;;;;;;;3.15;2.00;;;;;;;;;;7329228;19;154154;-18
2022/05/17 05:57:29;;;;;;;5.25;2.53;;;;;;;;;;7329058;19;153518;-18
2022/05/17 06:00:01;;;;;;;4.90;2.42;;;;;;;;;;7327567;19;162103;-18
2022/05/17 06:02:41;;;;;;;7.35;2.58;;;;;;;;;;7327737;19;162574;-18
2022/05/17 06:05:13;;;;;;;4.15;2.40;;;;;;;;;;7325598;19;154084;-19
2022/05/17 06:07:44;;;;;;;7.93;2.65;;;;;;;;;;7328390;19;153686;-19
2022/05/17 06:10:19;;;;;;;4.63;2.25;;;;;;;;;;7326655;19;161972;-19
2022/05/17 06:12:50;;;;;;;7.82;2.40;;;;;;;;;;7331727;19;162547;-19
2022/05/17 06:15:25;;;;;;;5.00;2.13;;;;;;;;;;7335021;19;154256;-18
2022/05/17 06:17:56;;;;;;;3.97;2.55;;;;;;;;;;7335234;19;153864;-18
2022/05/17 06:20:27;;;;;;;3.75;2.13;;;;;;;;;;7332486;19;161915;-18
2022/05/17 06:22:59;;;;;;;2.78;2.00;;;;;;;;;;7334460;19;162465;-18
2022/05/17 06:25:33;;;;;;;4.75;2.30;;;;;;;;;;7335135;19;154358;-18
2022/05/17 06:28:04;;;;;;;4.32;2.00;;;;;;;;;;7334963;19;153678;-19
2022/05/17 06:30:36;;;;;;;3.75;2.05;;;;;;;;;;7334553;19;161958;-18
2022/05/17 06:33:10;;;;;;;4.18;2.60;;;;;;;;;;7334744;19;162384;-19
2022/05/17 06:35:41;;;;;;;6.85;2.33;;;;;;;;;;7334748;19;154068;-18
2022/05/17 06:38:13;;;;;;;3.50;2.33;;;;;;;;;;7334657;19;153519;-18
2022/05/17 06:40:47;;;;;;;3.95;1.90;;;;;;;;;;7332018;19;161854;-23
2022/05/17 06:43:19;;;;;;;5.90;2.40;;;;;;;;;;7333926;19;162743;-18
2022/05/17 06:45:51;;;;;;;3.35;1.90;;;;;;;;;;7333156;19;154220;-18
2022/05/17 06:48:22;;;;;;;3.45;2.08;;;;;;;;;;7333319;19;153405;-18
2022/05/17 06:50:54;;;;;;;4.95;2.10;;;;;;;;;;7333724;19;161557;-18
2022/05/17 06:53:25;;;;;;;4.82;1.80;;;;;;;;;;7333792;19;162350;-18
2022/05/17 06:55:59;;;;;;;2.67;1.83;;;;;;;;;;7332669;19;154125;-18
2022/05/17 06:58:31;;;;;;;5.38;1.88;;;;;;;;;;7333900;19;153570;-18
2022/05/17 07:01:02;;;;;;;3.53;2.13;;;;;;;;;;7331288;19;161847;-18
2022/05/17 07:03:34;;;;;;;7.07;2.63;;;;;;;;;;7332216;19;162618;-18
2022/05/17 07:06:06;;;;;;;4.20;2.40;;;;;;;;;;7334140;19;154195;-18
2022/05/17 07:08:37;;;;;;;3.78;1.60;;;;;;;;;;7333612;19;153725;-19
2022/05/17 07:13:54;;;;;;;3.90;2.25;;;;;;;;;;7333382;19;162543;-18
2022/05/17 07:16:26;;;;;;;6.28;2.17;;;;;;;;;;7333467;19;154122;-18
2022/05/17 07:18:58;;;;;;;2.58;1.70;;;;;;;;;;7333503;19;153715;-18
2022/05/17 07:21:42;;;;;;;4.53;2.10;;;;;;;;;;7331563;19;161898;-18
2022/05/17 07:24:13;;;;;;;3.00;1.95;;;;;;;;;;7331629;19;162538;-18
2022/05/17 07:26:47;;;;;;;2.75;1.95;;;;;;;;;;7332155;19;154252;-18
2022/05/17 07:29:29;;;;;;;3.70;2.72;;;;;;;;;;7333189;19;153827;-18
2022/05/17 07:32:00;;;;;;;3.30;1.98;;;;;;;;;;7332317;19;161931;-18
2022/05/17 07:34:33;;;;;;;3.72;1.85;;;;;;;;;;7332713;19;163085;-18
2022/05/17 07:37:04;;;;;;;3.97;1.60;;;;;;;;;;7331987;19;154307;-19
2022/05/17 07:39:35;;;;;;;3.53;1.88;;;;;;;;;;7332980;19;153614;-19
2022/05/17 07:42:11;;;;;;;1.90;1.67;;;;;;;;;;7335380;19;161876;-19
2022/05/17 07:44:43;;;;;;;2.35;1.60;;;;;;;;;;7332617;19;162560;-19
2022/05/17 07:47:17;;;;;;;2.13;1.92;;;;;;;;;;7333096;19;154162;-19
2022/05/17 07:49:48;;;;;;;3.35;1.80;;;;;;;;;;7330581;19;153688;-20
2022/05/17 07:52:20;;;;;;;2.22;1.88;;;;;;;;;;7332502;19;161978;-19
2022/05/17 07:54:51;;;;;;;1.55;1.45;;;;;;;;;;7332452;19;162712;-19
2022/05/17 07:57:25;;;;;;;4.20;2.05;;;;;;;;;;7331505;19;154152;-19
2022/05/17 07:59:57;;;;;;;4.68;2.00;;;;;;;;;;7332561;19;153548;-19
2022/05/17 08:02:28;;;;;;;7.28;2.20;;;;;;;;;;7330230;19;162126;-19
2022/05/17 08:05:00;;;;;;;2.85;2.15;;;;;;;;;;7330874;19;162543;-19
2022/05/17 08:07:31;;;;;;;6.30;1.70;;;;;;;;;;7332415;19;154133;-19
2022/05/17 08:10:03;;;;;;;3.33;1.80;;;;;;;;;;7332267;19;153727;-19
2022/05/17 08:12:37;;;;;;;2.77;2.10;;;;;;;;;;7331976;19;162023;-19
2022/05/17 08:15:10;;;;;;;3.25;1.80;;;;;;;;;;7331940;19;162526;-20
2022/05/17 08:17:42;;;;;;;2.95;1.77;;;;;;;;;;7332095;19;154367;-18
2022/05/17 08:20:14;;;;;;;2.20;2.00;;;;;;;;;;7330738;19;153828;-19
2022/05/17 08:22:47;;;;;;;4.47;2.22;;;;;;;;;;7328531;19;162111;-18
2022/05/17 08:28:07;;;;;;;3.22;1.88;;;;;;;;;;7330518;19;154387;-20
2022/05/17 08:30:40;;;;;;;2.95;1.98;;;;;;;;;;7331875;19;153605;-18
2022/05/17 08:33:20;;;;;;;3.10;2.07;;;;;;;;;;7331362;19;161849;-18
2022/05/17 08:35:53;;;;;;;3.10;1.80;;;;;;;;;;7328592;19;162262;-18
2022/05/17 08:38:27;;;;;;;2.00;1.80;;;;;;;;;;7331459;19;154104;-18
2022/05/17 08:41:05;;;;;;;3.20;2.13;;;;;;;;;;7330317;19;153633;-21
2022/05/17 08:43:53;;;;;;;1.52;1.42;;;;;;;;;;7328239;19;162003;-18
2022/05/17 08:46:32;;;;;;;3.00;1.75;;;;;;;;;;7330880;19;162692;-18
2022/05/17 08:49:13;;;;;;;3.17;2.13;;;;;;;;;;7329165;19;154472;-18
2022/05/17 08:51:47;;;;;;;2.60;1.80;;;;;;;;;;7329816;19;153836;-18
2022/05/17 08:54:23;;;;;;;3.97;1.70;;;;;;;;;;7331544;19;161833;-18
2022/05/17 08:56:59;;;;;;;3.78;1.85;;;;;;;;;;7332584;19;162765;-18
2022/05/17 08:59:38;;;;;;;9.90;1.80;;;;;;;;;;7330765;19;154160;-17
2022/05/17 09:02:14;;;;;;;2.90;1.80;;;;;;;;;;7329527;19;154962;-17
2022/05/17 09:05:04;;;;;;;3.20;2.00;;;;;;;;;;7331956;19;161854;-17
2022/05/17 09:07:57;;;;;;;2.17;1.50;;;;;;;;;;7368809;19;133143;-21
2022/05/17 09:10:35;;;;;;;3.22;2.00;;;;;;;;;;7367666;19;153516;-18
2022/05/17 09:13:13;;;;;;;3.53;1.67;;;;;;;;;;7364375;19;161797;-18
2022/05/17 09:15:46;;;;;;;4.90;1.80;;;;;;;;;;7364487;19;162359;-18
2022/05/17 09:18:21;;;;;;;5.00;1.98;;;;;;;;;;7363562;19;153971;-18
2022/05/17 09:20:53;;;;;;;3.20;1.75;;;;;;;;;;7364454;19;153396;-17
2022/05/17 09:23:27;;;;;;;1.98;1.75;;;;;;;;;;7364101;19;161859;-18
2022/05/17 09:26:20;;;;;;;2.70;2.00;;;;;;;;;;7362223;19;163122;-18
2022/05/17 09:28:57;;;;;;;3.03;1.85;;;;;;;;;;7364333;19;153904;-18
2022/05/17 09:31:32;;;;;;;3.80;2.03;;;;;;;;;;7364368;19;153554;-18
2022/05/17 09:34:09;;;;;;;5.57;2.22;;;;;;;;;;7363975;19;161814;-18
2022/05/17 09:36:45;;;;;;;2.25;1.98;;;;;;;;;;7364833;19;162592;-18
2022/05/17 09:39:22;;;;;;;2.85;1.75;;;;;;;;;;7364048;19;154189;-18
2022/05/17 09:41:55;;;;;;;2.33;1.80;;;;;;;;;;7363951;19;153546;-19
2022/05/17 09:44:45;;;;;;;2.08;1.63;;;;;;;;;;7363408;19;162100;-18
2022/05/17 09:47:28;;;;;;;4.40;1.95;;;;;;;;;;7364498;19;162497;-18
2022/05/17 09:52:45;;;;;;;;;;;;;;;;;;7364599;19;153462;-18
2022/05/17 09:55:23;;;;;;;2.63;1.95;;;;;;;;;;7365971;19;162092;-18
2022/05/17 09:57:57;;;;;;;2.50;1.65;;;;;;;;;;7363238;19;162364;-18
2022/05/17 10:00:32;;;;;;;2.20;1.70;;;;;;;;;;7363360;19;154221;-19
2022/05/17 10:03:07;;;;;;;3.97;1.67;;;;;;;;;;7363500;19;153536;-18
2022/05/17 10:05:49;;;;;;;2.22;1.65;;;;;;;;;;7362270;19;161977;-18
2022/05/17 10:08:39;;;;;;;4.25;1.90;;;;;;;;;;7362857;19;162472;-18
2022/05/17 10:11:24;;;;;;;3.40;2.20;;;;;;;;;;7363118;19;154399;-17
2022/05/17 10:14:09;;;;;;;4.35;1.63;;;;;;;;;;7363181;19;153702;-17
2022/05/17 10:16:45;;;;;;;2.55;2.35;;;;;;;;;;7362566;19;161920;-17
2022/05/17 10:19:26;;;;;;;5.68;1.92;;;;;;;;;;7330361;19;162354;-17
2022/05/17 10:22:03;;;;;;;5.78;2.05;;;;;;;;;;7338532;19;153933;-17
2022/05/17 10:24:45;;;;;;;2.20;1.70;;;;;;;;;;7337013;19;153667;-17
2022/05/17 10:27:24;;;;;;;2.85;1.60;;;;;;;;;;7328931;19;162167;-17
2022/05/17 10:29:57;;;;;;;2.60;1.77;;;;;;;;;;7335651;19;162383;-18
2022/05/17 10:32:33;;;;;;;2.70;1.92;;;;;;;;;;7335797;19;154004;-18
2022/05/17 10:35:20;;;;;;;3.28;1.85;;;;;;;;;;7334282;19;153621;-17
2022/05/17 10:37:56;;;;;;;3.65;1.85;;;;;;;;;;7331949;19;162289;-18
2022/05/17 10:40:33;;;;;;;3.75;1.80;;;;;;;;;;7336185;19;162590;-18
2022/05/17 10:43:07;;;;;;;2.42;1.50;;;;;;;;;;7332639;19;153987;-18
2022/05/17 10:45:39;;;;;;;3.35;1.50;;;;;;;;;;7337324;19;153779;-19
2022/05/17 10:48:20;;;;;;;2.03;1.70;;;;;;;;;;7330860;19;161806;-18
2022/05/17 10:50:57;;;;;;;3.00;1.67;;;;;;;;;;7332677;19;162333;-18
2022/05/17 10:53:41;;;;;;;3.22;1.83;;;;;;;;;;7333080;19;153784;-18
2022/05/17 10:56:25;;;;;;;2.28;1.80;;;;;;;;;;7332791;19;153519;-18
2022/05/17 10:59:08;;;;;;;5.63;1.95;;;;;;;;;;7335294;19;161809;-18
2022/05/17 11:01:46;;;;;;;3.05;1.60;;;;;;;;;;7333265;19;162509;-18
2022/05/17 11:04:57;;;;;;;2.35;1.38;;;;;;;;;;7331783;19;154164;-18
2022/05/17 11:07:48;;;;;;;2.45;1.67;;;;;;;;;;7329810;19;153522;-18
2022/05/17 11:10:30;;;;;;;3.35;1.70;;;;;;;;;;7335464;19;161913;-18
2022/05/17 11:13:12;;;;;;;3.33;2.00;;;;;;;;;;7335259;19;163244;-17
2022/05/17 11:15:52;;;;;;;3.97;1.50;;;;;;;;;;7336370;19;154043;-18
2022/05/17 11:18:30;;;;;;;2.53;1.73;;;;;;;;;;7335014;19;153591;-18
2022/05/17 11:21:07;;;;;;;1.95;1.60;;;;;;;;;;7333447;19;161869;-18
2022/05/17 11:23:45;;;;;;;2.83;1.42;;;;;;;;;;7331205;19;162525;-18
2022/05/17 11:27:04;;;;;;;1.98;1.60;;;;;;;;;;7334442;19;153630;-18
2022/05/17 11:30:00;;;;;;;3.13;1.95;;;;;;;;;;7328051;19;153779;-18
2022/05/17 11:32:36;;;;;;;3.30;1.70;;;;;;;;;;7330891;19;161596;-17
2022/05/17 11:35:41;;;;;;;2.78;1.80;;;;;;;;;;7334015;19;162357;-17
2022/05/17 11:38:21;;;;;;;3.05;1.95;;;;;;;;;;7331085;19;153941;-18
2022/05/17 11:40:58;;;;;;;3.22;1.65;;;;;;;;;;7333689;19;153606;-18
2022/05/17 11:43:44;;;;;;;2.00;1.80;;;;;;;;;;7333809;19;161808;-18
2022/05/17 11:46:54;;;;;;;2.35;1.60;;;;;;;;;;7333117;19;162501;-18
2022/05/17 11:49:45;;;;;;;2.58;1.40;;;;;;;;;;7329396;19;154225;-17
2022/05/17 11:52:34;;;;;;;4.43;1.80;;;;;;;;;;7329433;19;153714;-18
2022/05/17 11:55:09;;;;;;;3.67;1.65;;;;;;;;;;7328574;19;161822;-19
2022/05/17 11:58:03;;;;;;;5.93;1.55;;;;;;;;;;7330335;19;162352;-18
2022/05/17 12:00:45;;;;;;;3.50;1.88;;;;;;;;;;7332592;19;154026;-18
2022/05/17 12:03:49;;;;;;;3.40;1.30;;;;;;;;;;7331959;19;153803;-18
2022/05/17 12:07:04;;;;;;;2.75;1.50;;;;;;;;;;7329014;19;161804;-18
2022/05/17 12:09:41;;;;;;;3.78;1.70;;;;;;;;;;7325514;19;163070;-18
2022/05/17 12:12:31;;;;;;;5.22;1.65;;;;;;;;;;7333050;19;153961;-18
2022/05/17 12:15:25;;;;;;;3.13;1.85;;;;;;;;;;7329530;19;153557;-18
2022/05/17 12:18:10;;;;;;;5.13;1.83;;;;;;;;;;7328850;19;162104;-18
2022/05/17 12:20:54;;;;;;;2.85;2.22;;;;;;;;;;7329143;19;162436;-18
2022/05/17 12:23:34;;;;;;;2.53;1.40;;;;;;;;;;7334180;19;154122;-18
2022/05/17 12:26:13;;;;;;;7.35;1.52;;;;;;;;;;7330371;19;153769;-18
2022/05/17 12:28:49;;;;;;;3.80;1.95;;;;;;;;;;7327544;19;161572;-18
2022/05/17 12:31:23;;;;;;;2.53;1.38;;;;;;;;;;7329750;19;162540;-18
2022/05/17 12:33:55;;;;;;;3.67;1.85;;;;;;;;;;7334492;19;154084;-17
2022/05/17 12:36:29;;;;;;;1.90;1.38;;;;;;;;;;7326635;19;153603;-18
2022/05/17 12:44:44;;;;;;;2.15;1.40;;;;;;;;;;7334038;19;153908;-18
2022/05/17 12:47:21;;;;;;;5.00;1.48;;;;;;;;;;7328798;19;153516;-18
2022/05/17 12:49:56;;;;;;;4.10;1.55;;;;;;;;;;7329481;19;161972;-18
2022/05/17 12:52:31;;;;;;;1.85;1.60;;;;;;;;;;7328753;19;162594;-18
2022/05/17 12:55:07;;;;;;;1.85;1.30;;;;;;;;;;7328060;19;154006;-17
2022/05/17 12:57:43;;;;;;;2.78;1.45;;;;;;;;;;7331143;19;153846;-17
2022/05/17 13:00:19;;;;;;;3.65;1.50;;;;;;;;;;7331403;19;162116;-17
2022/05/17 13:02:54;;;;;;;1.50;1.20;;;;;;;;;;7329864;19;162679;-18
2022/05/17 13:05:32;;;;;;;2.60;1.30;;;;;;;;;;7326108;19;154161;-17
2022/05/17 13:08:10;;;;;;;3.90;1.58;;;;;;;;;;7331360;19;153562;-18
2022/05/17 13:10:43;;;;;;;2.05;1.85;;;;;;;;;;7325419;19;161913;-17
2022/05/17 13:13:19;;;;;;;3.63;1.73;;;;;;;;;;7328624;19;162612;-17
2022/05/17 13:15:55;;;;;;;2.72;1.50;;;;;;;;;;7332195;19;153965;-18
2022/05/17 13:18:39;;;;;;;5.28;2.05;;;;;;;;;;7329203;19;153694;-18
2022/05/17 13:21:18;;;;;;;5.80;1.90;;;;;;;;;;7330496;19;161891;-18
2022/05/17 13:23:51;;;;;;;6.05;1.90;;;;;;;;;;7328243;19;162403;-18
2022/05/17 13:26:29;;;;;;;2.55;1.90;;;;;;;;;;7330454;19;154294;-19
2022/05/17 13:29:25;;;;;;;4.57;1.77;;;;;;;;;;7327415;19;153478;-18
2022/05/17 13:31:59;;;;;;;5.25;2.83;;;;;;;;;;7332259;19;161793;-17
2022/05/17 13:34:33;;;;;;;3.95;2.10;;;;;;;;;;7327762;19;162636;-19
2022/05/17 13:37:07;;;;;;;4.00;2.13;;;;;;;;;;7332015;19;154433;-17
2022/05/17 13:39:46;;;;;;;4.50;2.10;;;;;;;;;;7327948;19;153521;-18
2022/05/17 13:42:26;;;;;;;3.40;2.03;;;;;;;;;;7326934;19;161929;-18
2022/05/17 13:45:05;;;;;;;14.38;6.30;;;;;;;;;;7331052;19;162458;-18
2022/05/17 13:47:40;;;;;;;79.57;35.42;;;;;;;;;;7327854;19;153998;-17
2022/05/17 13:50:16;;;;;;;115.75;53.65;;;;;;;;;;7325735;19;153625;-18
2022/05/17 13:52:51;;;;;;;103.13;52.35;;;;;;;;;;7329122;19;161714;-17
2022/05/17 13:55:26;;;;;;;107.20;51.55;;;;;;;;;;7334102;19;162532;-18
2022/05/17 13:58:03;;;;;;;100.85;52.45;;;;;;;;;;7338351;19;153983;-19
2022/05/17 14:00:43;;;;;;;95.18;50.20;;;;;;;;;;7334367;19;153890;-17
2022/05/17 14:03:21;;;;;;;102.30;51.92;;;;;;;;;;7334119;19;161842;-18
2022/05/17 14:05:58;;;;;;;104.13;51.30;;;;;;;;;;7333207;19;162438;-18
2022/05/17 14:14:11;;;;;;;100.35;45.88;;;;;;;;;;7333837;19;161782;-18
2022/05/17 14:16:47;;;;;;;88.65;47.15;;;;;;;;;;7333668;19;162514;-18
2022/05/17 14:19:22;;;;;;;81.38;43.67;;;;;;;;;;7333990;19;154093;-19
2022/05/17 14:21:56;;;;;;;93.72;46.42;;;;;;;;;;7333903;19;153598;-18
2022/05/17 14:24:27;;;;;;;86.65;44.25;;;;;;;;;;7331983;19;161997;-18
2022/05/17 14:27:00;;;;;;;80.50;42.75;;;;;;;;;;7333055;19;162542;-18
2022/05/17 14:29:34;;;;;;;76.20;40.28;;;;;;;;;;7331652;19;154200;-17
2022/05/17 14:32:09;;;;;;;82.10;39.63;;;;;;;;;;7333583;19;153587;-21
2022/05/17 14:34:42;;;;;;;83.63;41.90;;;;;;;;;;7333150;19;162030;-18
2022/05/17 14:37:15;;;;;;;71.78;36.53;;;;;;;;;;7333198;19;162642;-18
2022/05/17 14:39:47;;;;;;;66.93;35.72;;;;;;;;;;7333702;19;154784;-19
2022/05/17 14:42:18;;;;;;;63.40;34.75;;;;;;;;;;7333659;19;153570;-19
2022/05/17 14:44:50;;;;;;;64.28;35.33;;;;;;;;;;7332917;19;162078;-18
2022/05/17 14:47:27;;;;;;;64.82;33.17;;;;;;;;;;7331569;19;162514;-19
2022/05/17 14:50:01;;;;;;;64.07;31.35;;;;;;;;;;7331971;19;153989;-17
2022/05/17 14:52:33;;;;;;;61.17;30.92;;;;;;;;;;7333101;19;153791;-20
2022/05/17 14:55:04;;;;;;;55.25;29.60;;;;;;;;;;7332598;19;162506;-21
2022/05/17 14:57:37;;;;;;;54.85;29.13;;;;;;;;;;7331330;19;162109;-20
2022/05/17 15:00:13;;;;;;;53.38;28.42;;;;;;;;;;7333373;19;154154;-19
2022/05/17 15:02:52;;;;;;;49.97;28.08;;;;;;;;;;7332620;19;153738;-19
2022/05/17 15:05:30;;;;;;;44.00;24.42;;;;;;;;;;7331481;19;162062;-19
2022/05/17 15:08:03;;;;;;;55.03;26.10;;;;;;;;;;7329511;19;162425;-18
2022/05/17 15:10:35;;;;;;;46.53;23.55;;;;;;;;;;7331029;19;154273;-18
2022/05/17 15:13:06;;;;;;;42.83;22.15;;;;;;;;;;7332311;19;154164;-18
2022/05/17 15:15:41;;;;;;;40.35;21.58;;;;;;;;;;7332081;19;162253;-19
2022/05/17 15:18:20;;;;;;;43.13;21.50;;;;;;;;;;7331860;19;162345;-19
2022/05/17 15:20:53;;;;;;;38.78;20.75;;;;;;;;;;7331965;19;154037;-18
2022/05/17 15:23:32;;;;;;;38.25;20.13;;;;;;;;;;7332002;19;153849;-18
2022/05/17 15:26:04;;;;;;;36.97;19.73;;;;;;;;;;7331450;19;161902;-17
2022/05/17 15:28:37;;;;;;;38.63;18.98;;;;;;;;;;7331327;19;162375;-18
2022/05/17 15:31:09;;;;;;;35.15;17.73;;;;;;;;;;7329667;19;154230;-18
2022/05/17 15:33:44;;;;;;;36.30;17.30;;;;;;;;;;7331516;19;153627;-17
2022/05/17 15:36:16;;;;;;;29.20;15.38;;;;;;;;;;7331084;19;161948;-18